sensor_id;sensor_type;location;lat;lon;timestamp;P1;durP1;ratioP1;P2;durP2;ratioP2
7661;SDS011;30314;48.184;11.510;2022-09-20T00:00:43;4.60;;;0.67;;
7661;SDS011;30314;48.184;11.510;2022-09-20T00:03:12;3.60;;;1.07;;
7661;SDS011;30314;48.184;11.510;2022-09-20T00:05:41;1.10;;;0.40;;
7661;SDS011;30314;48.184;11.510;2022-09-20T00:08:11;4.80;;;0.90;;
7661;SDS011;30314;48.184;11.510;2022-09-20T00:10:40;3.43;;;1.07;;
7661;SDS011;30314;48.184;11.510;2022-09-20T00:13:11;1.40;;;0.70;;
7661;SDS011;30314;48.184;11.510;2022-09-20T00:15:40;1.00;;;0.50;;
7661;SDS011;30314;48.184;11.510;2022-09-20T00:18:10;4.40;;;0.80;;
7661;SDS011;30314;48.184;11.510;2022-09-20T00:20:43;1.00;;;0.50;;
7661;SDS011;30314;48.184;11.510;2022-09-20T00:23:11;1.37;;;0.60;;
7661;SDS011;30314;48.184;11.510;2022-09-20T00:25:39;1.57;;;0.53;;
7661;SDS011;30314;48.184;11.510;2022-09-20T00:28:07;2.07;;;0.70;;
7661;SDS011;30314;48.184;11.510;2022-09-20T00:30:37;2.10;;;0.93;;
7661;SDS011;30314;48.184;11.510;2022-09-20T00:33:05;1.63;;;0.70;;
7661;SDS011;30314;48.184;11.510;2022-09-20T00:35:32;2.27;;;0.47;;
7661;SDS011;30314;48.184;11.510;2022-09-20T00:37:59;1.80;;;0.53;;
7661;SDS011;30314;48.184;11.510;2022-09-20T00:40:27;1.90;;;0.53;;
7661;SDS011;30314;48.184;11.510;2022-09-20T00:42:55;2.30;;;0.70;;
7661;SDS011;30314;48.184;11.510;2022-09-20T00:45:23;2.03;;;0.70;;
7661;SDS011;30314;48.184;11.510;2022-09-20T00:47:54;1.70;;;0.53;;
7661;SDS011;30314;48.184;11.510;2022-09-20T00:50:28;1.53;;;0.70;;
7661;SDS011;30314;48.184;11.510;2022-09-20T00:53:01;2.60;;;1.10;;
7661;SDS011;30314;48.184;11.510;2022-09-20T00:55:34;2.40;;;0.80;;
7661;SDS011;30314;48.184;11.510;2022-09-20T00:58:06;2.30;;;0.87;;
7661;SDS011;30314;48.184;11.510;2022-09-20T01:00:35;3.07;;;0.60;;
7661;SDS011;30314;48.184;11.510;2022-09-20T01:03:06;1.97;;;0.93;;
7661;SDS011;30314;48.184;11.510;2022-09-20T01:05:37;1.70;;;0.93;;
7661;SDS011;30314;48.184;11.510;2022-09-20T01:08:06;4.70;;;0.80;;
7661;SDS011;30314;48.184;11.510;2022-09-20T01:10:35;1.70;;;0.63;;
7661;SDS011;30314;48.184;11.510;2022-09-20T01:13:03;6.33;;;2.63;;
7661;SDS011;30314;48.184;11.510;2022-09-20T01:15:31;1.60;;;0.47;;
7661;SDS011;30314;48.184;11.510;2022-09-20T01:18:01;1.63;;;0.60;;
7661;SDS011;30314;48.184;11.510;2022-09-20T01:20:32;4.20;;;0.70;;
7661;SDS011;30314;48.184;11.510;2022-09-20T01:23:06;2.83;;;0.60;;
7661;SDS011;30314;48.184;11.510;2022-09-20T01:28:39;1.17;;;0.50;;
7661;SDS011;30314;48.184;11.510;2022-09-20T01:31:12;5.33;;;1.00;;
7661;SDS011;30314;48.184;11.510;2022-09-20T01:33:43;3.13;;;0.83;;
7661;SDS011;30314;48.184;11.510;2022-09-20T01:36:17;6.80;;;1.93;;
7661;SDS011;30314;48.184;11.510;2022-09-20T01:38:51;2.37;;;1.03;;
7661;SDS011;30314;48.184;11.510;2022-09-20T01:41:32;2.00;;;0.50;;
7661;SDS011;30314;48.184;11.510;2022-09-20T01:44:05;2.50;;;0.63;;
7661;SDS011;30314;48.184;11.510;2022-09-20T01:46:39;2.50;;;0.70;;
7661;SDS011;30314;48.184;11.510;2022-09-20T01:49:14;1.27;;;0.70;;
7661;SDS011;30314;48.184;11.510;2022-09-20T01:52:11;2.13;;;0.70;;
7661;SDS011;30314;48.184;11.510;2022-09-20T02:01:01;2.67;;;0.80;;
7661;SDS011;30314;48.184;11.510;2022-09-20T02:03:53;2.40;;;0.77;;
7661;SDS011;30314;48.184;11.510;2022-09-20T02:06:39;1.00;;;0.57;;
7661;SDS011;30314;48.184;11.510;2022-09-20T02:09:19;2.00;;;0.77;;
7661;SDS011;30314;48.184;11.510;2022-09-20T02:12:18;1.37;;;0.70;;
7661;SDS011;30314;48.184;11.510;2022-09-20T02:15:02;1.90;;;0.90;;
7661;SDS011;30314;48.184;11.510;2022-09-20T02:17:42;1.43;;;0.60;;
7661;SDS011;30314;48.184;11.510;2022-09-20T02:20:25;1.70;;;1.03;;
7661;SDS011;30314;48.184;11.510;2022-09-20T02:23:04;1.13;;;0.60;;
7661;SDS011;30314;48.184;11.510;2022-09-20T02:28:51;2.43;;;1.00;;
7661;SDS011;30314;48.184;11.510;2022-09-20T02:31:26;3.10;;;1.70;;
7661;SDS011;30314;48.184;11.510;2022-09-20T02:34:17;1.17;;;0.90;;
7661;SDS011;30314;48.184;11.510;2022-09-20T02:36:59;2.43;;;1.17;;
7661;SDS011;30314;48.184;11.510;2022-09-20T02:39:42;4.10;;;1.33;;
7661;SDS011;30314;48.184;11.510;2022-09-20T02:42:20;2.87;;;1.00;;
7661;SDS011;30314;48.184;11.510;2022-09-20T02:44:53;3.53;;;1.13;;
7661;SDS011;30314;48.184;11.510;2022-09-20T02:47:30;1.63;;;0.87;;
7661;SDS011;30314;48.184;11.510;2022-09-20T02:50:06;2.90;;;0.70;;
7661;SDS011;30314;48.184;11.510;2022-09-20T02:52:42;1.43;;;0.87;;
7661;SDS011;30314;48.184;11.510;2022-09-20T02:55:16;1.63;;;0.93;;
7661;SDS011;30314;48.184;11.510;2022-09-20T02:57:47;2.60;;;1.03;;
7661;SDS011;30314;48.184;11.510;2022-09-20T03:00:21;5.20;;;1.43;;
7661;SDS011;30314;48.184;11.510;2022-09-20T03:02:58;3.23;;;1.00;;
7661;SDS011;30314;48.184;11.510;2022-09-20T03:05:36;1.97;;;0.90;;
7661;SDS011;30314;48.184;11.510;2022-09-20T03:08:18;5.73;;;1.10;;
7661;SDS011;30314;48.184;11.510;2022-09-20T03:10:56;1.67;;;1.07;;
7661;SDS011;30314;48.184;11.510;2022-09-20T03:13:37;1.60;;;0.80;;
7661;SDS011;30314;48.184;11.510;2022-09-20T03:16:17;11.20;;;1.10;;
7661;SDS011;30314;48.184;11.510;2022-09-20T03:18:56;2.40;;;1.30;;
7661;SDS011;30314;48.184;11.510;2022-09-20T03:21:35;4.43;;;1.07;;
7661;SDS011;30314;48.184;11.510;2022-09-20T03:24:17;6.10;;;1.17;;
7661;SDS011;30314;48.184;11.510;2022-09-20T03:26:54;3.33;;;0.93;;
7661;SDS011;30314;48.184;11.510;2022-09-20T03:29:32;7.93;;;1.23;;
7661;SDS011;30314;48.184;11.510;2022-09-20T03:32:13;4.27;;;1.33;;
7661;SDS011;30314;48.184;11.510;2022-09-20T03:34:55;5.50;;;1.27;;
7661;SDS011;30314;48.184;11.510;2022-09-20T03:37:39;3.03;;;1.40;;
7661;SDS011;30314;48.184;11.510;2022-09-20T03:40:25;5.43;;;1.17;;
7661;SDS011;30314;48.184;11.510;2022-09-20T03:43:03;3.23;;;1.30;;
7661;SDS011;30314;48.184;11.510;2022-09-20T03:45:50;2.70;;;0.80;;
7661;SDS011;30314;48.184;11.510;2022-09-20T03:51:31;3.40;;;1.20;;
7661;SDS011;30314;48.184;11.510;2022-09-20T03:54:20;3.67;;;1.10;;
7661;SDS011;30314;48.184;11.510;2022-09-20T03:57:10;2.10;;;1.50;;
7661;SDS011;30314;48.184;11.510;2022-09-20T03:59:54;2.80;;;1.37;;
7661;SDS011;30314;48.184;11.510;2022-09-20T04:05:39;3.43;;;1.37;;
7661;SDS011;30314;48.184;11.510;2022-09-20T04:08:21;1.73;;;1.27;;
7661;SDS011;30314;48.184;11.510;2022-09-20T04:11:13;2.30;;;1.10;;
7661;SDS011;30314;48.184;11.510;2022-09-20T04:13:53;3.10;;;1.60;;
7661;SDS011;30314;48.184;11.510;2022-09-20T04:16:28;2.43;;;1.13;;
7661;SDS011;30314;48.184;11.510;2022-09-20T04:19:08;2.70;;;1.33;;
7661;SDS011;30314;48.184;11.510;2022-09-20T04:21:42;2.00;;;1.17;;
7661;SDS011;30314;48.184;11.510;2022-09-20T04:24:17;4.00;;;1.67;;
7661;SDS011;30314;48.184;11.510;2022-09-20T04:26:54;3.87;;;1.27;;
7661;SDS011;30314;48.184;11.510;2022-09-20T04:29:28;2.50;;;1.30;;
7661;SDS011;30314;48.184;11.510;2022-09-20T04:32:03;3.77;;;1.40;;
7661;SDS011;30314;48.184;11.510;2022-09-20T04:34:42;2.27;;;1.20;;
7661;SDS011;30314;48.184;11.510;2022-09-20T04:37:33;3.20;;;1.57;;
7661;SDS011;30314;48.184;11.510;2022-09-20T04:40:08;8.43;;;1.70;;
7661;SDS011;30314;48.184;11.510;2022-09-20T04:43:00;2.10;;;1.43;;
7661;SDS011;30314;48.184;11.510;2022-09-20T04:49:08;2.00;;;1.47;;
7661;SDS011;30314;48.184;11.510;2022-09-20T04:52:10;4.00;;;1.10;;
7661;SDS011;30314;48.184;11.510;2022-09-20T04:55:06;6.07;;;1.63;;
7661;SDS011;30314;48.184;11.510;2022-09-20T04:58:01;3.87;;;1.43;;
7661;SDS011;30314;48.184;11.510;2022-09-20T05:01:22;5.40;;;1.77;;
7661;SDS011;30314;48.184;11.510;2022-09-20T05:07:12;4.83;;;1.77;;
7661;SDS011;30314;48.184;11.510;2022-09-20T05:13:11;2.37;;;1.50;;
7661;SDS011;30314;48.184;11.510;2022-09-20T05:15:43;3.43;;;1.70;;
7661;SDS011;30314;48.184;11.510;2022-09-20T05:18:47;2.43;;;1.50;;
7661;SDS011;30314;48.184;11.510;2022-09-20T05:27:28;2.70;;;1.80;;
7661;SDS011;30314;48.184;11.510;2022-09-20T05:30:05;4.67;;;1.97;;
7661;SDS011;30314;48.184;11.510;2022-09-20T05:32:42;3.23;;;1.70;;
7661;SDS011;30314;48.184;11.510;2022-09-20T05:35:16;7.80;;;1.73;;
7661;SDS011;30314;48.184;11.510;2022-09-20T05:37:53;7.30;;;1.83;;
7661;SDS011;30314;48.184;11.510;2022-09-20T05:40:30;4.83;;;1.63;;
7661;SDS011;30314;48.184;11.510;2022-09-20T05:43:07;2.63;;;1.47;;
7661;SDS011;30314;48.184;11.510;2022-09-20T05:45:46;2.97;;;1.53;;
7661;SDS011;30314;48.184;11.510;2022-09-20T05:48:23;2.07;;;1.70;;
7661;SDS011;30314;48.184;11.510;2022-09-20T05:51:03;2.70;;;1.50;;
7661;SDS011;30314;48.184;11.510;2022-09-20T05:53:45;3.50;;;2.10;;
7661;SDS011;30314;48.184;11.510;2022-09-20T05:56:28;4.80;;;2.17;;
7661;SDS011;30314;48.184;11.510;2022-09-20T05:59:24;3.80;;;1.90;;
7661;SDS011;30314;48.184;11.510;2022-09-20T06:02:17;4.50;;;1.80;;
7661;SDS011;30314;48.184;11.510;2022-09-20T06:04:53;2.67;;;1.70;;
7661;SDS011;30314;48.184;11.510;2022-09-20T06:07:36;6.00;;;1.73;;
7661;SDS011;30314;48.184;11.510;2022-09-20T06:10:19;5.10;;;2.17;;
7661;SDS011;30314;48.184;11.510;2022-09-20T06:13:00;4.40;;;2.03;;
7661;SDS011;30314;48.184;11.510;2022-09-20T06:15:41;8.03;;;2.07;;
7661;SDS011;30314;48.184;11.510;2022-09-20T06:18:19;3.93;;;2.13;;
7661;SDS011;30314;48.184;11.510;2022-09-20T06:20:55;9.40;;;2.17;;
7661;SDS011;30314;48.184;11.510;2022-09-20T06:23:30;6.70;;;2.30;;
7661;SDS011;30314;48.184;11.510;2022-09-20T06:25:59;6.17;;;1.90;;
7661;SDS011;30314;48.184;11.510;2022-09-20T06:28:33;4.83;;;2.17;;
7661;SDS011;30314;48.184;11.510;2022-09-20T06:31:06;3.83;;;1.93;;
7661;SDS011;30314;48.184;11.510;2022-09-20T06:33:41;4.23;;;2.70;;
7661;SDS011;30314;48.184;11.510;2022-09-20T06:36:11;4.57;;;2.20;;
7661;SDS011;30314;48.184;11.510;2022-09-20T06:39:02;6.97;;;2.07;;
7661;SDS011;30314;48.184;11.510;2022-09-20T06:41:57;8.33;;;2.00;;
7661;SDS011;30314;48.184;11.510;2022-09-20T06:44:25;5.20;;;2.50;;
7661;SDS011;30314;48.184;11.510;2022-09-20T06:46:53;7.43;;;2.10;;
7661;SDS011;30314;48.184;11.510;2022-09-20T06:49:22;5.80;;;2.40;;
7661;SDS011;30314;48.184;11.510;2022-09-20T06:51:53;7.73;;;2.30;;
7661;SDS011;30314;48.184;11.510;2022-09-20T06:54:21;6.40;;;2.60;;
7661;SDS011;30314;48.184;11.510;2022-09-20T06:56:49;3.50;;;2.33;;
7661;SDS011;30314;48.184;11.510;2022-09-20T06:59:17;8.90;;;2.63;;
7661;SDS011;30314;48.184;11.510;2022-09-20T07:01:45;6.37;;;2.87;;
7661;SDS011;30314;48.184;11.510;2022-09-20T07:04:13;7.40;;;2.70;;
7661;SDS011;30314;48.184;11.510;2022-09-20T07:06:42;9.70;;;3.07;;
7661;SDS011;30314;48.184;11.510;2022-09-20T07:09:09;7.47;;;2.50;;
7661;SDS011;30314;48.184;11.510;2022-09-20T07:11:37;8.07;;;2.80;;
7661;SDS011;30314;48.184;11.510;2022-09-20T07:14:05;5.30;;;2.60;;
7661;SDS011;30314;48.184;11.510;2022-09-20T07:16:33;5.70;;;2.53;;
7661;SDS011;30314;48.184;11.510;2022-09-20T07:19:02;8.30;;;3.07;;
7661;SDS011;30314;48.184;11.510;2022-09-20T07:21:31;5.97;;;2.20;;
7661;SDS011;30314;48.184;11.510;2022-09-20T07:24:00;4.90;;;2.23;;
7661;SDS011;30314;48.184;11.510;2022-09-20T07:26:28;3.80;;;1.80;;
7661;SDS011;30314;48.184;11.510;2022-09-20T07:28:57;6.43;;;2.43;;
7661;SDS011;30314;48.184;11.510;2022-09-20T07:31:27;7.13;;;2.23;;
7661;SDS011;30314;48.184;11.510;2022-09-20T07:33:56;7.50;;;2.90;;
7661;SDS011;30314;48.184;11.510;2022-09-20T07:36:24;8.53;;;3.03;;
7661;SDS011;30314;48.184;11.510;2022-09-20T07:38:51;7.77;;;2.63;;
7661;SDS011;30314;48.184;11.510;2022-09-20T07:41:21;6.47;;;2.83;;
7661;SDS011;30314;48.184;11.510;2022-09-20T07:43:49;7.83;;;3.40;;
7661;SDS011;30314;48.184;11.510;2022-09-20T07:46:17;8.40;;;2.57;;
7661;SDS011;30314;48.184;11.510;2022-09-20T07:48:47;4.90;;;2.60;;
7661;SDS011;30314;48.184;11.510;2022-09-20T07:51:15;5.37;;;3.00;;
7661;SDS011;30314;48.184;11.510;2022-09-20T07:53:43;10.77;;;3.00;;
7661;SDS011;30314;48.184;11.510;2022-09-20T07:56:12;6.10;;;3.47;;
7661;SDS011;30314;48.184;11.510;2022-09-20T07:58:42;5.30;;;2.30;;
7661;SDS011;30314;48.184;11.510;2022-09-20T08:01:15;7.13;;;2.43;;
7661;SDS011;30314;48.184;11.510;2022-09-20T08:03:43;9.57;;;2.70;;
7661;SDS011;30314;48.184;11.510;2022-09-20T08:06:11;6.40;;;3.00;;
7661;SDS011;30314;48.184;11.510;2022-09-20T08:08:40;4.20;;;2.73;;
7661;SDS011;30314;48.184;11.510;2022-09-20T08:11:09;11.10;;;3.80;;
7661;SDS011;30314;48.184;11.510;2022-09-20T08:13:38;5.90;;;2.80;;
7661;SDS011;30314;48.184;11.510;2022-09-20T08:16:29;7.17;;;3.23;;
7661;SDS011;30314;48.184;11.510;2022-09-20T08:18:57;20.77;;;3.80;;
7661;SDS011;30314;48.184;11.510;2022-09-20T08:21:27;12.30;;;3.50;;
7661;SDS011;30314;48.184;11.510;2022-09-20T08:23:57;7.70;;;3.90;;
7661;SDS011;30314;48.184;11.510;2022-09-20T08:26:26;7.33;;;4.03;;
7661;SDS011;30314;48.184;11.510;2022-09-20T08:28:57;8.03;;;3.80;;
7661;SDS011;30314;48.184;11.510;2022-09-20T08:31:28;6.17;;;3.83;;
7661;SDS011;30314;48.184;11.510;2022-09-20T08:34:00;11.30;;;4.57;;
7661;SDS011;30314;48.184;11.510;2022-09-20T08:36:29;6.70;;;4.00;;
7661;SDS011;30314;48.184;11.510;2022-09-20T08:39:02;10.33;;;4.73;;
7661;SDS011;30314;48.184;11.510;2022-09-20T08:41:51;9.17;;;4.70;;
7661;SDS011;30314;48.184;11.510;2022-09-20T08:44:23;12.13;;;4.67;;
7661;SDS011;30314;48.184;11.510;2022-09-20T08:46:59;10.20;;;4.17;;
7661;SDS011;30314;48.184;11.510;2022-09-20T08:49:32;8.20;;;4.83;;
7661;SDS011;30314;48.184;11.510;2022-09-20T08:52:00;8.20;;;4.60;;
7661;SDS011;30314;48.184;11.510;2022-09-20T08:54:35;5.50;;;4.80;;
7661;SDS011;30314;48.184;11.510;2022-09-20T08:57:05;9.37;;;5.10;;
7661;SDS011;30314;48.184;11.510;2022-09-20T08:59:40;12.67;;;5.57;;
7661;SDS011;30314;48.184;11.510;2022-09-20T09:02:12;10.77;;;5.07;;
7661;SDS011;30314;48.184;11.510;2022-09-20T09:04:42;12.20;;;5.97;;
7661;SDS011;30314;48.184;11.510;2022-09-20T09:07:11;15.77;;;5.20;;
7661;SDS011;30314;48.184;11.510;2022-09-20T15:11:20;5.60;;;1.10;;
7661;SDS011;30314;48.184;11.510;2022-09-20T15:13:48;6.73;;;1.40;;
7661;SDS011;30314;48.184;11.510;2022-09-20T15:16:16;4.07;;;0.80;;
7661;SDS011;30314;48.184;11.510;2022-09-20T15:18:45;2.13;;;0.77;;
7661;SDS011;30314;48.184;11.510;2022-09-20T15:21:13;6.20;;;1.03;;
7661;SDS011;30314;48.184;11.510;2022-09-20T15:23:41;2.40;;;0.80;;
7661;SDS011;30314;48.184;11.510;2022-09-20T15:26:09;2.60;;;0.50;;
7661;SDS011;30314;48.184;11.510;2022-09-20T15:28:40;1.87;;;0.90;;
7661;SDS011;30314;48.184;11.510;2022-09-20T15:31:08;4.50;;;1.00;;
7661;SDS011;30314;48.184;11.510;2022-09-20T15:33:36;3.97;;;0.70;;
7661;SDS011;30314;48.184;11.510;2022-09-20T15:36:04;3.13;;;1.23;;
7661;SDS011;30314;48.184;11.510;2022-09-20T15:38:32;4.50;;;1.03;;
7661;SDS011;30314;48.184;11.510;2022-09-20T15:41:01;3.33;;;0.80;;
7661;SDS011;30314;48.184;11.510;2022-09-20T15:43:30;7.13;;;1.67;;
7661;SDS011;30314;48.184;11.510;2022-09-20T15:45:59;3.57;;;0.90;;
7661;SDS011;30314;48.184;11.510;2022-09-20T15:48:38;4.37;;;1.23;;
7661;SDS011;30314;48.184;11.510;2022-09-20T15:51:07;3.53;;;0.90;;
7661;SDS011;30314;48.184;11.510;2022-09-20T15:53:37;4.90;;;1.10;;
7661;SDS011;30314;48.184;11.510;2022-09-20T15:56:13;4.60;;;1.67;;
7661;SDS011;30314;48.184;11.510;2022-09-20T15:58:43;4.40;;;1.10;;
7661;SDS011;30314;48.184;11.510;2022-09-20T16:01:13;3.07;;;0.93;;
7661;SDS011;30314;48.184;11.510;2022-09-20T16:03:42;3.03;;;0.97;;
7661;SDS011;30314;48.184;11.510;2022-09-20T16:06:11;2.23;;;0.80;;
7661;SDS011;30314;48.184;11.510;2022-09-20T16:08:40;3.70;;;1.13;;
7661;SDS011;30314;48.184;11.510;2022-09-20T16:11:09;5.40;;;1.00;;
7661;SDS011;30314;48.184;11.510;2022-09-20T16:13:39;4.00;;;1.10;;
7661;SDS011;30314;48.184;11.510;2022-09-20T16:16:08;3.90;;;1.00;;
7661;SDS011;30314;48.184;11.510;2022-09-20T16:18:40;5.47;;;0.70;;
7661;SDS011;30314;48.184;11.510;2022-09-20T16:21:25;4.23;;;0.80;;
7661;SDS011;30314;48.184;11.510;2022-09-20T16:23:53;2.30;;;0.80;;
7661;SDS011;30314;48.184;11.510;2022-09-20T16:26:23;2.50;;;0.70;;
7661;SDS011;30314;48.184;11.510;2022-09-20T16:28:52;5.03;;;0.90;;
7661;SDS011;30314;48.184;11.510;2022-09-20T16:31:27;7.07;;;1.07;;
7661;SDS011;30314;48.184;11.510;2022-09-20T16:33:59;4.50;;;1.43;;
7661;SDS011;30314;48.184;11.510;2022-09-20T16:36:27;3.80;;;1.07;;
7661;SDS011;30314;48.184;11.510;2022-09-20T16:38:55;2.90;;;1.00;;
7661;SDS011;30314;48.184;11.510;2022-09-20T16:41:23;4.13;;;0.80;;
7661;SDS011;30314;48.184;11.510;2022-09-20T16:43:53;5.53;;;1.03;;
7661;SDS011;30314;48.184;11.510;2022-09-20T16:46:22;3.30;;;0.70;;
7661;SDS011;30314;48.184;11.510;2022-09-20T16:48:52;1.57;;;0.87;;
7661;SDS011;30314;48.184;11.510;2022-09-20T16:51:23;5.27;;;1.40;;
7661;SDS011;30314;48.184;11.510;2022-09-20T16:53:51;8.03;;;1.20;;
7661;SDS011;30314;48.184;11.510;2022-09-20T16:56:21;5.10;;;1.23;;
7661;SDS011;30314;48.184;11.510;2022-09-20T16:58:51;5.40;;;1.50;;
7661;SDS011;30314;48.184;11.510;2022-09-20T17:01:19;4.77;;;1.70;;
7661;SDS011;30314;48.184;11.510;2022-09-20T17:03:50;4.23;;;1.20;;
7661;SDS011;30314;48.184;11.510;2022-09-20T17:06:18;5.33;;;1.37;;
7661;SDS011;30314;48.184;11.510;2022-09-20T17:08:49;11.07;;;1.70;;
7661;SDS011;30314;48.184;11.510;2022-09-20T17:11:24;10.43;;;1.47;;
7661;SDS011;30314;48.184;11.510;2022-09-20T17:13:54;3.47;;;1.30;;
7661;SDS011;30314;48.184;11.510;2022-09-20T17:16:25;6.50;;;1.10;;
7661;SDS011;30314;48.184;11.510;2022-09-20T17:18:55;6.40;;;1.10;;
7661;SDS011;30314;48.184;11.510;2022-09-20T17:21:24;8.47;;;1.00;;
7661;SDS011;30314;48.184;11.510;2022-09-20T17:23:55;4.03;;;1.37;;
7661;SDS011;30314;48.184;11.510;2022-09-20T17:26:26;4.43;;;1.33;;
7661;SDS011;30314;48.184;11.510;2022-09-20T17:28:58;4.07;;;1.17;;
7661;SDS011;30314;48.184;11.510;2022-09-20T17:31:28;3.47;;;1.13;;
7661;SDS011;30314;48.184;11.510;2022-09-20T17:33:59;5.63;;;1.40;;
7661;SDS011;30314;48.184;11.510;2022-09-20T17:36:28;5.60;;;1.07;;
7661;SDS011;30314;48.184;11.510;2022-09-20T17:38:59;8.37;;;1.27;;
7661;SDS011;30314;48.184;11.510;2022-09-20T17:41:30;4.10;;;1.13;;
7661;SDS011;30314;48.184;11.510;2022-09-20T17:43:59;9.20;;;2.00;;
7661;SDS011;30314;48.184;11.510;2022-09-20T17:46:33;4.43;;;1.37;;
7661;SDS011;30314;48.184;11.510;2022-09-20T17:49:03;4.80;;;1.30;;
7661;SDS011;30314;48.184;11.510;2022-09-20T17:51:33;10.17;;;1.27;;
7661;SDS011;30314;48.184;11.510;2022-09-20T17:54:05;6.07;;;1.60;;
7661;SDS011;30314;48.184;11.510;2022-09-20T17:56:33;4.23;;;1.30;;
7661;SDS011;30314;48.184;11.510;2022-09-20T17:59:02;4.90;;;1.40;;
7661;SDS011;30314;48.184;11.510;2022-09-20T18:01:32;11.17;;;1.80;;
7661;SDS011;30314;48.184;11.510;2022-09-20T18:04:03;6.87;;;1.70;;
7661;SDS011;30314;48.184;11.510;2022-09-20T18:06:32;8.57;;;1.70;;
7661;SDS011;30314;48.184;11.510;2022-09-20T18:09:02;6.10;;;2.30;;
7661;SDS011;30314;48.184;11.510;2022-09-20T18:11:33;7.63;;;1.93;;
7661;SDS011;30314;48.184;11.510;2022-09-20T18:14:02;14.57;;;2.03;;
7661;SDS011;30314;48.184;11.510;2022-09-20T18:16:31;25.53;;;3.77;;
7661;SDS011;30314;48.184;11.510;2022-09-20T18:19:00;4.13;;;1.50;;
7661;SDS011;30314;48.184;11.510;2022-09-20T18:21:28;7.33;;;1.70;;
7661;SDS011;30314;48.184;11.510;2022-09-20T18:23:58;11.07;;;3.77;;
7661;SDS011;30314;48.184;11.510;2022-09-20T18:26:27;11.27;;;1.70;;
7661;SDS011;30314;48.184;11.510;2022-09-20T18:28:59;5.10;;;1.27;;
7661;SDS011;30314;48.184;11.510;2022-09-20T18:31:28;6.43;;;1.27;;
7661;SDS011;30314;48.184;11.510;2022-09-20T18:34:00;5.70;;;1.80;;
7661;SDS011;30314;48.184;11.510;2022-09-20T18:36:30;2.23;;;1.30;;
7661;SDS011;30314;48.184;11.510;2022-09-20T18:38:59;5.10;;;1.90;;
7661;SDS011;30314;48.184;11.510;2022-09-20T18:41:28;6.70;;;2.07;;
7661;SDS011;30314;48.184;11.510;2022-09-20T18:44:00;8.40;;;2.23;;
7661;SDS011;30314;48.184;11.510;2022-09-20T18:46:30;7.63;;;3.20;;
7661;SDS011;30314;48.184;11.510;2022-09-20T18:48:59;7.57;;;2.47;;
7661;SDS011;30314;48.184;11.510;2022-09-20T18:51:30;9.27;;;2.40;;
7661;SDS011;30314;48.184;11.510;2022-09-20T18:54:04;7.20;;;2.37;;
7661;SDS011;30314;48.184;11.510;2022-09-20T18:56:35;9.50;;;2.90;;
7661;SDS011;30314;48.184;11.510;2022-09-20T18:59:06;9.97;;;3.70;;
7661;SDS011;30314;48.184;11.510;2022-09-20T19:07:40;8.33;;;2.23;;
7661;SDS011;30314;48.184;11.510;2022-09-20T19:10:25;6.20;;;2.13;;
7661;SDS011;30314;48.184;11.510;2022-09-20T19:13:03;10.13;;;2.70;;
7661;SDS011;30314;48.184;11.510;2022-09-20T19:15:46;5.63;;;2.13;;
7661;SDS011;30314;48.184;11.510;2022-09-20T19:18:29;6.53;;;1.83;;
7661;SDS011;30314;48.184;11.510;2022-09-20T19:21:27;7.17;;;1.87;;
7661;SDS011;30314;48.184;11.510;2022-09-20T19:24:06;7.83;;;2.63;;
7661;SDS011;30314;48.184;11.510;2022-09-20T19:26:43;9.20;;;2.00;;
7661;SDS011;30314;48.184;11.510;2022-09-20T19:29:13;6.57;;;2.27;;
7661;SDS011;30314;48.184;11.510;2022-09-20T19:31:47;6.70;;;3.80;;
7661;SDS011;30314;48.184;11.510;2022-09-20T19:34:17;6.70;;;2.93;;
7661;SDS011;30314;48.184;11.510;2022-09-20T19:36:49;6.30;;;2.40;;
7661;SDS011;30314;48.184;11.510;2022-09-20T19:39:31;6.27;;;2.60;;
7661;SDS011;30314;48.184;11.510;2022-09-20T19:42:18;13.17;;;3.00;;
7661;SDS011;30314;48.184;11.510;2022-09-20T19:44:56;3.77;;;1.97;;
7661;SDS011;30314;48.184;11.510;2022-09-20T19:47:35;11.00;;;3.43;;
7661;SDS011;30314;48.184;11.510;2022-09-20T19:50:19;10.87;;;3.77;;
7661;SDS011;30314;48.184;11.510;2022-09-20T19:52:54;10.73;;;3.80;;
7661;SDS011;30314;48.184;11.510;2022-09-20T19:55:23;14.47;;;3.73;;
7661;SDS011;30314;48.184;11.510;2022-09-20T19:57:51;6.67;;;3.27;;
7661;SDS011;30314;48.184;11.510;2022-09-20T20:00:20;9.57;;;3.43;;
7661;SDS011;30314;48.184;11.510;2022-09-20T20:02:50;13.30;;;5.37;;
7661;SDS011;30314;48.184;11.510;2022-09-20T20:05:20;10.70;;;4.50;;
7661;SDS011;30314;48.184;11.510;2022-09-20T20:07:51;11.87;;;3.70;;
7661;SDS011;30314;48.184;11.510;2022-09-20T20:10:27;8.60;;;2.97;;
7661;SDS011;30314;48.184;11.510;2022-09-20T20:13:02;10.50;;;3.43;;
7661;SDS011;30314;48.184;11.510;2022-09-20T20:15:59;6.07;;;2.67;;
7661;SDS011;30314;48.184;11.510;2022-09-20T20:18:32;5.90;;;2.07;;
7661;SDS011;30314;48.184;11.510;2022-09-20T20:21:11;7.23;;;2.37;;
7661;SDS011;30314;48.184;11.510;2022-09-20T20:24:03;7.57;;;2.07;;
7661;SDS011;30314;48.184;11.510;2022-09-20T20:26:43;5.47;;;1.87;;
7661;SDS011;30314;48.184;11.510;2022-09-20T20:29:14;6.20;;;2.40;;
7661;SDS011;30314;48.184;11.510;2022-09-20T20:31:41;3.63;;;1.90;;
7661;SDS011;30314;48.184;11.510;2022-09-20T20:34:10;6.57;;;2.23;;
7661;SDS011;30314;48.184;11.510;2022-09-20T20:36:42;5.20;;;2.00;;
7661;SDS011;30314;48.184;11.510;2022-09-20T20:39:10;5.77;;;2.20;;
7661;SDS011;30314;48.184;11.510;2022-09-20T20:41:38;6.13;;;2.17;;
7661;SDS011;30314;48.184;11.510;2022-09-20T20:44:06;5.97;;;2.20;;
7661;SDS011;30314;48.184;11.510;2022-09-20T20:46:34;3.60;;;1.60;;
7661;SDS011;30314;48.184;11.510;2022-09-20T20:49:02;9.00;;;1.73;;
7661;SDS011;30314;48.184;11.510;2022-09-20T20:51:32;5.27;;;1.50;;
7661;SDS011;30314;48.184;11.510;2022-09-20T20:53:59;2.30;;;1.70;;
7661;SDS011;30314;48.184;11.510;2022-09-20T20:56:29;3.83;;;1.97;;
7661;SDS011;30314;48.184;11.510;2022-09-20T20:58:58;4.03;;;1.60;;
7661;SDS011;30314;48.184;11.510;2022-09-20T21:01:26;3.33;;;1.57;;
7661;SDS011;30314;48.184;11.510;2022-09-20T21:03:55;5.27;;;1.50;;
7661;SDS011;30314;48.184;11.510;2022-09-20T21:06:25;3.60;;;1.33;;
7661;SDS011;30314;48.184;11.510;2022-09-20T21:08:55;5.67;;;1.77;;
7661;SDS011;30314;48.184;11.510;2022-09-20T21:11:24;2.30;;;1.10;;
7661;SDS011;30314;48.184;11.510;2022-09-20T21:13:53;4.23;;;1.30;;
7661;SDS011;30314;48.184;11.510;2022-09-20T21:16:23;2.23;;;1.37;;
7661;SDS011;30314;48.184;11.510;2022-09-20T21:18:52;4.67;;;1.40;;
7661;SDS011;30314;48.184;11.510;2022-09-20T21:21:20;3.10;;;1.90;;
7661;SDS011;30314;48.184;11.510;2022-09-20T21:23:49;3.90;;;1.80;;
7661;SDS011;30314;48.184;11.510;2022-09-20T21:26:20;4.87;;;1.30;;
7661;SDS011;30314;48.184;11.510;2022-09-20T21:28:49;5.03;;;1.97;;
7661;SDS011;30314;48.184;11.510;2022-09-20T21:31:18;4.40;;;1.87;;
7661;SDS011;30314;48.184;11.510;2022-09-20T21:33:47;4.77;;;1.80;;
7661;SDS011;30314;48.184;11.510;2022-09-20T21:36:15;3.47;;;1.63;;
7661;SDS011;30314;48.184;11.510;2022-09-20T21:38:45;8.10;;;2.07;;
7661;SDS011;30314;48.184;11.510;2022-09-20T21:41:13;3.10;;;1.70;;
7661;SDS011;30314;48.184;11.510;2022-09-20T21:43:44;2.73;;;1.40;;
7661;SDS011;30314;48.184;11.510;2022-09-20T21:46:14;5.40;;;1.70;;
7661;SDS011;30314;48.184;11.510;2022-09-20T21:48:44;2.97;;;1.30;;
7661;SDS011;30314;48.184;11.510;2022-09-20T21:51:13;7.80;;;2.27;;
7661;SDS011;30314;48.184;11.510;2022-09-20T21:53:42;3.97;;;2.00;;
7661;SDS011;30314;48.184;11.510;2022-09-20T21:56:10;2.90;;;1.50;;
7661;SDS011;30314;48.184;11.510;2022-09-20T21:58:39;4.20;;;2.33;;
7661;SDS011;30314;48.184;11.510;2022-09-20T22:01:10;5.73;;;2.03;;
7661;SDS011;30314;48.184;11.510;2022-09-20T22:03:40;6.33;;;2.10;;
7661;SDS011;30314;48.184;11.510;2022-09-20T22:06:09;6.13;;;2.03;;